Time;durP1;ratioP1;P1;durP2;ratioP2;P2;SDS_P1;SDS_P2;PMS_P1;PMS_P2;Temp;Humidity;BMP_temperature;BMP_pressure;BME280_temperature;BME280_humidity;BME280_pressure;Samples;Min_cycle;Max_cycle;Signal;HPM_P1;HPM_P2
2023/04/27 00:01:13;;;;;;;0.95;0.10;;;;;;;4.11;55.47;100627.63;5011763;28;20088;-70
2023/04/27 00:03:40;;;;;;;0.30;0.28;;;;;;;4.06;55.19;100618.97;5011961;28;20053;-69
2023/04/27 00:06:08;;;;;;;0.10;0.10;;;;;;;4.04;55.41;100625.84;5012204;28;20084;-69
2023/04/27 00:08:36;;;;;;;0.10;0.10;;;;;;;4.02;55.76;100635.31;5013452;28;20053;-69
2023/04/27 00:11:04;;;;;;;0.10;0.10;;;;;;;4.00;55.61;100626.69;5011196;28;20056;-68
2023/04/27 00:13:31;;;;;;;0.10;0.10;;;;;;;3.96;56.11;100630.97;5012290;28;20440;-69
2023/04/27 00:16:02;;;;;;;0.13;0.10;;;;;;;3.94;55.67;100631.81;5010780;28;20060;-70
2023/04/27 00:18:28;;;;;;;0.10;0.10;;;;;;;3.91;56.27;100639.56;5010719;28;20053;-68
2023/04/27 00:20:55;;;;;;;0.45;0.10;;;;;;;3.88;56.57;100635.22;5008876;28;20502;-70
2023/04/27 00:23:22;;;;;;;0.10;0.10;;;;;;;3.87;56.14;100638.69;5011874;28;20049;-69
2023/04/27 00:25:50;;;;;;;0.10;0.10;;;;;;;3.85;56.58;100642.09;5010120;28;20060;-70
2023/04/27 00:28:17;;;;;;;4.22;0.13;;;;;;;3.82;56.48;100630.03;5012722;28;20921;-69
2023/04/27 00:30:45;;;;;;;0.10;0.10;;;;;;;3.79;56.32;100641.19;5016703;28;20042;-69
2023/04/27 00:33:12;;;;;;;0.20;0.10;;;;;;;3.77;56.51;100636.88;5019671;28;20046;-69
2023/04/27 00:35:39;;;;;;;0.10;0.10;;;;;;;3.74;56.62;100642.88;5018333;28;20144;-69
2023/04/27 00:38:06;;;;;;;1.65;0.10;;;;;;;3.73;57.39;100635.09;5016823;28;20056;-69
2023/04/27 00:40:32;;;;;;;0.10;0.10;;;;;;;3.70;56.99;100635.09;5018932;28;20042;-69
2023/04/27 00:43:01;;;;;;;0.10;0.10;;;;;;;3.66;57.55;100636.78;5014500;28;20057;-69
2023/04/27 00:45:28;;;;;;;0.10;0.10;;;;;;;3.63;57.43;100639.34;5015973;28;20042;-69
2023/04/27 00:47:55;;;;;;;1.85;0.10;;;;;;;3.62;57.59;100641.94;5014930;28;20390;-69
2023/04/27 00:50:27;;;;;;;1.38;0.45;;;;;;;3.58;57.56;100641.03;5016626;28;20049;-69
2023/04/27 00:52:55;;;;;;;0.22;0.10;;;;;;;3.57;57.84;100641.91;5020119;28;20053;-69
2023/04/27 00:55:22;;;;;;;0.30;0.30;;;;;;;3.56;57.41;100640.19;5018793;28;20049;-69
2023/04/27 00:57:49;;;;;;;0.10;0.10;;;;;;;3.54;57.96;100642.72;5015824;28;20050;-69
2023/04/27 01:00:17;;;;;;;0.50;0.20;;;;;;;3.53;57.70;100647.88;5019309;28;20041;-69
2023/04/27 01:02:44;;;;;;;0.40;0.20;;;;;;;3.51;58.07;100649.59;5018120;28;20049;-69
2023/04/27 01:05:12;;;;;;;0.45;0.10;;;;;;;3.49;57.65;100640.97;5013451;28;20053;-69
2023/04/27 01:07:39;;;;;;;0.35;0.10;;;;;;;3.48;57.93;100647.00;5018251;28;20059;-69
2023/04/27 01:10:07;;;;;;;0.10;0.10;;;;;;;3.46;57.81;100651.28;5018301;28;20045;-69
2023/04/27 01:12:34;;;;;;;0.17;0.10;;;;;;;3.44;57.99;100648.66;5018369;28;20072;-69
2023/04/27 01:15:01;;;;;;;0.32;0.10;;;;;;;3.44;58.62;100652.97;5016113;28;20443;-70
2023/04/27 01:17:29;;;;;;;0.75;0.55;;;;;;;3.41;58.53;100647.78;5014037;28;20049;-69
2023/04/27 01:19:56;;;;;;;0.65;0.10;;;;;;;3.36;58.54;100643.44;5018385;28;20080;-69
2023/04/27 01:22:23;;;;;;;0.08;0.08;;;;;;;3.39;58.18;100655.53;5019577;28;20049;-69
2023/04/27 01:24:52;;;;;;;0.20;0.10;;;;;;;3.38;58.63;100658.94;5018575;28;20046;-69
2023/04/27 01:27:19;;;;;;;0.20;0.10;;;;;;;3.35;58.25;100652.03;5013363;28;20123;-69
2023/04/27 01:29:46;;;;;;;0.20;0.20;;;;;;;3.35;58.98;100659.78;5020927;28;20042;-69
2023/04/27 01:32:13;;;;;;;0.20;0.10;;;;;;;3.34;58.43;100657.19;5017791;28;20500;-69
2023/04/27 01:34:40;;;;;;;0.10;0.10;;;;;;;3.31;58.40;100655.44;5018621;28;20506;-69
2023/04/27 01:37:07;;;;;;;0.25;0.20;;;;;;;3.31;59.17;100662.34;5015572;28;20560;-69
2023/04/27 01:39:34;;;;;;;0.85;0.10;;;;;;;3.29;58.42;100662.31;5017717;28;20083;-69
2023/04/27 01:42:02;;;;;;;0.10;0.10;;;;;;;3.28;58.62;100657.16;5016982;28;20050;-69
2023/04/27 01:44:29;;;;;;;0.30;0.20;;;;;;;3.27;59.30;100655.38;5018179;28;20045;-69
2023/04/27 01:46:56;;;;;;;0.40;0.10;;;;;;;3.26;58.57;100651.94;5019353;28;20053;-69
2023/04/27 01:49:23;;;;;;;0.90;0.10;;;;;;;3.24;59.38;100655.38;5016571;28;20045;-69
2023/04/27 01:51:50;;;;;;;0.20;0.20;;;;;;;3.23;59.10;100651.06;5020421;28;20053;-70
2023/04/27 01:54:17;;;;;;;0.20;0.10;;;;;;;3.22;59.17;100649.34;5019371;28;20045;-70
2023/04/27 01:56:44;;;;;;;0.20;0.15;;;;;;;3.20;59.59;100654.47;5001175;28;20167;-69
2023/04/27 01:59:12;;;;;;;0.38;0.17;;;;;;;3.18;59.43;100653.59;5020182;28;20477;-69
2023/04/27 02:01:39;;;;;;;0.22;0.10;;;;;;;3.19;59.55;100657.03;5018994;28;20462;-69
2023/04/27 02:04:06;;;;;;;1.90;0.15;;;;;;;3.15;59.21;100657.00;5013154;28;20896;-69
2023/04/27 02:06:33;;;;;;;0.40;0.40;;;;;;;3.14;59.66;100659.59;5020192;28;20486;-69
2023/04/27 02:09:00;;;;;;;0.98;0.10;;;;;;;3.11;59.49;100659.56;5021886;28;20505;-69
2023/04/27 02:11:27;;;;;;;0.85;0.20;;;;;;;3.10;59.68;100662.97;5018979;28;20520;-67
2023/04/27 02:13:53;;;;;;;2.10;0.10;;;;;;;3.08;59.81;100659.53;5019958;28;20059;-67
2023/04/27 02:16:22;;;;;;;0.20;0.10;;;;;;;3.06;59.84;100661.22;5019781;28;20510;-67
2023/04/27 02:18:49;;;;;;;0.88;0.10;;;;;;;3.05;59.70;100651.75;5017626;28;20499;-67
2023/04/27 02:21:16;;;;;;;0.30;0.20;;;;;;;3.03;60.25;100656.88;5017048;28;20073;-67
2023/04/27 02:23:43;;;;;;;0.55;0.13;;;;;;;3.02;60.38;100659.47;5017557;28;20042;-73
2023/04/27 02:26:17;;;;;;;0.10;0.10;;;;;;;3.00;59.81;100653.41;5022806;28;20060;-67
2023/04/27 02:28:44;;;;;;;0.20;0.10;;;;;;;2.98;60.02;100655.97;5017197;28;20041;-66
2023/04/27 02:31:11;;;;;;;0.98;0.17;;;;;;;2.98;60.03;100660.28;5012027;28;20128;-67
2023/04/27 02:33:40;;;;;;;0.20;0.10;;;;;;;2.97;60.15;100661.13;5022564;28;20045;-74
2023/04/27 02:36:08;;;;;;;0.15;0.10;;;;;;;2.96;60.07;100664.53;5022117;28;20049;-74
2023/04/27 02:38:35;;;;;;;0.20;0.10;;;;;;;2.96;59.98;100664.53;5021856;28;20037;-74
2023/04/27 02:41:02;;;;;;;0.10;0.10;;;;;;;2.95;59.87;100674.00;5021071;28;20041;-74
2023/04/27 02:43:29;;;;;;;1.75;0.10;;;;;;;2.94;59.84;100661.97;5017429;28;20064;-74
2023/04/27 02:45:55;;;;;;;0.10;0.10;;;;;;;2.95;59.90;100665.41;5021404;28;20045;-74
2023/04/27 02:48:22;;;;;;;0.45;0.10;;;;;;;2.90;60.00;100668.81;5025329;28;20049;-74
2023/04/27 02:50:51;;;;;;;0.10;0.10;;;;;;;2.91;60.14;100664.50;5020692;28;20473;-75
2023/04/27 02:53:18;;;;;;;0.28;0.15;;;;;;;2.89;60.29;100674.81;5015846;28;20048;-74
2023/04/27 02:55:48;;;;;;;0.20;0.10;;;;;;;2.89;60.39;100669.63;5021071;28;20383;-75
2023/04/27 02:58:15;;;;;;;1.75;0.10;;;;;;;2.88;59.94;100677.38;5023075;28;20497;-74
2023/04/27 03:00:42;;;;;;;0.45;0.20;;;;;;;2.89;60.49;100684.25;5017014;28;20545;-74
2023/04/27 03:03:09;;;;;;;1.25;0.10;;;;;;;2.87;60.14;100686.81;5023795;28;20056;-74
2023/04/27 03:05:37;;;;;;;0.13;0.10;;;;;;;2.86;60.26;100689.38;5020075;28;20054;-74
2023/04/27 03:08:05;;;;;;;0.13;0.10;;;;;;;2.85;59.81;100683.38;5021740;28;20486;-74
2023/04/27 03:10:32;;;;;;;0.63;0.10;;;;;;;2.84;60.03;100681.63;5017506;28;20042;-74
2023/04/27 03:12:59;;;;;;;0.50;0.10;;;;;;;2.83;60.29;100685.06;5019068;28;20528;-75
2023/04/27 03:15:26;;;;;;;0.20;0.10;;;;;;;2.79;60.76;100683.31;5017029;28;20049;-75
2023/04/27 03:17:53;;;;;;;0.10;0.10;;;;;;;2.81;60.50;100681.59;5025630;28;20053;-74
2023/04/27 03:20:21;;;;;;;0.10;0.10;;;;;;;2.79;60.38;100678.13;5018698;28;20038;-74
2023/04/27 03:22:48;;;;;;;1.15;0.10;;;;;;;2.77;60.41;100687.56;5017044;28;20045;-74
2023/04/27 03:25:16;;;;;;;1.30;0.17;;;;;;;2.77;60.56;100684.13;5014419;28;20516;-74
2023/04/27 03:27:43;;;;;;;0.28;0.20;;;;;;;2.75;60.42;100681.50;5020636;28;20050;-74
2023/04/27 03:30:11;;;;;;;0.55;0.17;;;;;;;2.71;60.54;100679.75;5014468;28;20045;-74
2023/04/27 03:32:38;;;;;;;0.10;0.10;;;;;;;2.72;60.64;100689.22;5021301;28;20050;-75
2023/04/27 03:35:06;;;;;;;0.17;0.10;;;;;;;2.70;60.86;100681.47;5017790;28;20049;-74
2023/04/27 03:37:33;;;;;;;0.10;0.10;;;;;;;2.72;60.56;100691.78;5020814;28;20049;-75
2023/04/27 03:40:00;;;;;;;0.65;0.10;;;;;;;2.71;60.82;100690.06;5018566;28;20054;-74
2023/04/27 03:42:29;;;;;;;0.15;0.13;;;;;;;2.70;61.46;100694.38;5020351;28;20046;-74
2023/04/27 03:44:56;;;;;;;0.70;0.10;;;;;;;2.67;60.76;100689.16;4999992;28;20069;-73
2023/04/27 03:47:22;;;;;;;0.10;0.10;;;;;;;2.68;61.00;100696.06;5016380;28;20046;-74
2023/04/27 03:49:49;;;;;;;0.30;0.10;;;;;;;2.68;61.06;100695.19;5016895;28;20050;-75
2023/04/27 03:52:16;;;;;;;0.17;0.10;;;;;;;2.68;61.31;100700.34;5019963;28;20037;-74
2023/04/27 03:54:43;;;;;;;1.95;0.10;;;;;;;2.69;61.59;100696.91;4998130;28;20042;-74
2023/04/27 03:57:10;;;;;;;0.57;0.10;;;;;;;2.68;61.71;100695.19;5013978;28;20060;-74
2023/04/27 03:59:38;;;;;;;0.40;0.10;;;;;;;2.69;61.14;100692.63;5021614;28;20061;-74
2023/04/27 04:02:05;;;;;;;0.80;0.20;;;;;;;2.70;61.32;100698.63;5018609;28;20045;-73
2023/04/27 04:04:32;;;;;;;2.10;0.10;;;;;;;2.70;61.18;100698.63;5016306;28;20064;-74
2023/04/27 04:06:59;;;;;;;0.85;0.20;;;;;;;2.72;61.48;100704.69;5022306;28;20045;-74
2023/04/27 04:09:26;;;;;;;0.13;0.10;;;;;;;2.73;61.22;100708.13;5021700;28;20157;-74
2023/04/27 04:11:53;;;;;;;0.98;0.10;;;;;;;2.73;61.75;100706.41;5022075;28;20160;-74
2023/04/27 04:14:19;;;;;;;0.22;0.13;;;;;;;2.74;61.25;100700.44;5021615;28;20053;-74
2023/04/27 04:16:48;;;;;;;2.42;0.20;;;;;;;2.76;61.84;100710.75;5017686;28;20050;-74
2023/04/27 04:19:15;;;;;;;0.35;0.10;;;;;;;2.74;61.45;100713.31;5019381;28;20053;-74
2023/04/27 04:21:42;;;;;;;1.30;0.10;;;;;;;2.80;61.50;100721.13;5016236;28;20046;-74
2023/04/27 04:24:09;;;;;;;0.75;0.20;;;;;;;2.82;61.58;100719.44;5019952;28;20045;-75
2023/04/27 04:26:36;;;;;;;0.10;0.10;;;;;;;2.85;62.27;100722.06;5019281;28;20508;-74
2023/04/27 04:29:03;;;;;;;0.73;0.10;;;;;;;2.88;61.73;100727.25;5022312;28;20574;-74
2023/04/27 04:31:32;;;;;;;1.67;0.20;;;;;;;2.93;62.07;100729.88;5019612;28;20049;-75
2023/04/27 04:34:02;;;;;;;0.20;0.10;;;;;;;2.97;61.95;100725.63;5015363;28;20053;-75
2023/04/27 04:36:29;;;;;;;0.50;0.30;;;;;;;3.02;61.95;100724.84;5017388;28;20052;-75
2023/04/27 04:38:57;;;;;;;0.45;0.10;;;;;;;3.08;62.44;100726.63;5019907;28;20497;-74
2023/04/27 04:41:24;;;;;;;0.82;0.10;;;;;;;3.12;62.29;100726.66;5016754;28;20413;-75
2023/04/27 04:43:51;;;;;;;0.57;0.20;;;;;;;3.21;62.50;100728.47;5019016;28;20413;-75
2023/04/27 04:46:18;;;;;;;0.30;0.10;;;;;;;3.28;62.37;100725.13;5022675;28;20095;-75
2023/04/27 04:48:45;;;;;;;3.50;0.08;;;;;;;3.37;62.38;100729.50;5018732;28;20042;-75
2023/04/27 04:51:14;;;;;;;0.65;0.20;;;;;;;3.47;62.22;100730.47;5020408;28;20057;-76
2023/04/27 04:53:40;;;;;;;4.28;0.17;;;;;;;3.56;62.23;100731.44;5028482;28;20052;-77
2023/04/27 04:56:11;;;;;;;1.27;0.15;;;;;;;3.64;62.78;100734.06;5022784;28;20054;-77
2023/04/27 04:58:38;;;;;;;0.35;0.10;;;;;;;3.75;62.17;100735.03;5024293;28;20061;-77
2023/04/27 05:01:05;;;;;;;0.45;0.10;;;;;;;3.84;61.72;100739.41;5029529;28;20045;-77
2023/04/27 05:03:32;;;;;;;0.28;0.10;;;;;;;3.95;62.14;100739.50;5030135;28;20048;-77
2023/04/27 05:05:59;;;;;;;0.50;0.10;;;;;;;4.03;61.88;100733.53;5027424;28;20500;-77
2023/04/27 05:08:27;;;;;;;1.55;0.10;;;;;;;4.14;61.43;100732.75;5024117;28;20049;-77
2023/04/27 05:10:55;;;;;;;1.88;0.20;;;;;;;4.24;61.61;100734.53;5015229;28;20049;-77
2023/04/27 05:13:23;;;;;;;0.60;0.10;;;;;;;4.32;61.31;100727.69;5019791;28;20500;-77
2023/04/27 05:15:50;;;;;;;0.15;0.13;;;;;;;4.41;61.18;100732.06;5023305;28;20053;-73
2023/04/27 05:18:17;;;;;;;0.20;0.10;;;;;;;4.49;61.35;100732.97;5016913;28;20054;-79
2023/04/27 05:20:44;;;;;;;0.20;0.13;;;;;;;4.58;61.21;100735.63;5028624;28;20045;-79
2023/04/27 05:23:11;;;;;;;1.08;0.13;;;;;;;4.65;60.66;100742.56;5013920;28;20042;-80
2023/04/27 05:25:41;;;;;;;0.10;0.10;;;;;;;4.70;60.53;100727.94;5028423;28;20046;-79
2023/04/27 05:28:08;;;;;;;1.85;0.10;;;;;;;4.76;60.33;100729.69;5024975;28;20814;-79
2023/04/27 05:30:36;;;;;;;2.97;0.17;;;;;;;4.88;60.38;100739.22;5031195;28;20052;-77
2023/04/27 05:33:03;;;;;;;3.30;0.10;;;;;;;4.91;60.29;100731.47;5029215;28;20489;-77
2023/04/27 05:35:30;;;;;;;0.20;0.10;;;;;;;4.98;59.87;100730.63;5030577;28;20139;-77
2023/04/27 05:37:57;;;;;;;0.38;0.10;;;;;;;5.02;59.77;100729.78;5034219;28;20103;-77
2023/04/27 05:40:24;;;;;;;0.32;0.10;;;;;;;5.08;59.96;100737.56;5027735;28;20049;-78
2023/04/27 05:42:52;;;;;;;0.85;0.10;;;;;;;5.11;59.91;100734.13;5031540;28;20073;-78
2023/04/27 05:45:19;;;;;;;0.73;0.15;;;;;;;5.18;59.75;100741.06;5031415;28;20397;-77
2023/04/27 05:47:46;;;;;;;2.40;0.10;;;;;;;5.21;59.38;100727.22;5019752;28;20046;-77
2023/04/27 05:50:13;;;;;;;0.35;0.10;;;;;;;5.27;59.55;100735.91;5026488;28;20046;-77
2023/04/27 05:52:40;;;;;;;0.52;0.10;;;;;;;5.31;59.26;100731.59;5028600;28;20057;-78
2023/04/27 05:55:08;;;;;;;0.63;0.10;;;;;;;5.35;59.21;100723.84;5024510;28;20042;-77
2023/04/27 05:57:35;;;;;;;0.20;0.13;;;;;;;5.37;59.35;100723.81;5026332;28;20048;-76
2023/04/27 06:00:08;;;;;;;1.08;0.15;;;;;;;5.44;59.07;100733.34;5026629;28;20077;-79
2023/04/27 06:02:36;;;;;;;0.98;0.10;;;;;;;5.48;58.97;100729.88;5026406;28;20045;-78
2023/04/27 06:05:02;;;;;;;3.05;0.10;;;;;;;5.53;59.08;100735.09;5028871;28;20041;-78
2023/04/27 06:07:29;;;;;;;0.80;0.10;;;;;;;5.56;58.95;100729.91;5025463;28;20041;-76
2023/04/27 06:09:56;;;;;;;3.85;1.20;;;;;;;5.61;58.86;100730.78;5028847;28;20041;-77
2023/04/27 06:12:23;;;;;;;1.67;0.10;;;;;;;5.63;58.86;100726.44;5025504;28;20516;-76
2023/04/27 06:14:50;;;;;;;1.45;0.10;;;;;;;5.68;58.50;100734.25;5025634;28;20052;-76
2023/04/27 06:17:18;;;;;;;0.15;0.10;;;;;;;5.72;58.34;100733.38;5023071;28;20123;-76
2023/04/27 06:19:45;;;;;;;0.40;0.10;;;;;;;5.76;57.87;100728.19;5025297;28;20064;-77
2023/04/27 06:22:12;;;;;;;1.60;0.10;;;;;;;5.80;57.81;100729.91;5021132;28;20049;-76
2023/04/27 06:24:39;;;;;;;1.33;0.10;;;;;;;5.85;58.06;100737.69;5026787;28;20050;-76
2023/04/27 06:27:06;;;;;;;2.22;0.03;;;;;;;5.89;57.96;100728.19;5027000;28;20049;-76
2023/04/27 06:29:33;;;;;;;0.47;0.10;;;;;;;5.91;58.11;100735.09;5022530;28;20046;-77
2023/04/27 06:32:00;;;;;;;0.43;0.03;;;;;;;5.95;58.15;100736.00;5022425;28;20041;-76
2023/04/27 06:34:28;;;;;;;0.52;0.10;;;;;;;5.99;58.04;100732.56;5029859;28;20124;-76
2023/04/27 06:36:55;;;;;;;0.10;0.08;;;;;;;6.01;57.50;100733.44;5024130;28;20042;-76
2023/04/27 06:39:22;;;;;;;1.25;0.10;;;;;;;6.07;57.50;100736.00;5024196;28;20053;-77
2023/04/27 06:41:49;;;;;;;4.38;0.10;;;;;;;6.10;57.11;100738.59;5024252;28;20478;-76
2023/04/27 06:44:16;;;;;;;1.17;0.20;;;;;;;6.13;56.67;100741.19;5019527;28;20471;-76
2023/04/27 06:46:43;;;;;;;1.30;0.10;;;;;;;6.18;56.16;100738.59;5021607;28;20642;-76
2023/04/27 06:49:10;;;;;;;1.05;0.10;;;;;;;6.23;56.56;100747.22;5017575;28;20096;-76
2023/04/27 06:51:38;;;;;;;0.57;0.10;;;;;;;6.26;56.27;100748.09;5023735;28;20969;-76
2023/04/27 06:54:06;;;;;;;0.65;0.10;;;;;;;6.32;56.52;100744.63;5022951;28;20499;-76
2023/04/27 06:56:33;;;;;;;0.30;0.10;;;;;;;6.37;55.59;100740.28;5024936;28;20459;-77
2023/04/27 06:59:00;;;;;;;0.47;0.08;;;;;;;6.43;55.23;100742.88;5025005;28;20042;-77
2023/04/27 07:01:27;;;;;;;0.65;0.10;;;;;;;6.48;55.61;100743.72;5025850;28;20037;-77
2023/04/27 07:03:53;;;;;;;0.08;0.00;;;;;;;6.51;55.41;100735.91;5024191;28;20502;-77
2023/04/27 07:06:21;;;;;;;0.20;0.00;;;;;;;6.62;55.38;100742.81;5026706;28;20405;-77
2023/04/27 07:08:49;;;;;;;0.10;0.00;;;;;;;6.67;54.89;100731.56;5031191;28;20075;-77
2023/04/27 07:11:16;;;;;;;0.10;0.10;;;;;;;6.78;54.63;100736.72;5022243;28;20046;-77
2023/04/27 07:13:43;;;;;;;2.17;0.03;;;;;;;6.86;54.31;100744.47;5016272;28;20144;-77
2023/04/27 07:16:10;;;;;;;0.70;0.10;;;;;;;6.92;54.14;100745.31;5021325;28;20509;-78
2023/04/27 07:18:37;;;;;;;1.05;0.10;;;;;;;6.99;54.14;100744.41;5029650;28;20049;-77
2023/04/27 07:21:03;;;;;;;0.17;0.03;;;;;;;7.08;54.08;100740.06;5024166;28;20056;-77
2023/04/27 07:23:31;;;;;;;0.00;0.00;;;;;;;7.17;54.36;100740.88;5021401;28;20061;-78
2023/04/27 07:25:59;;;;;;;0.05;0.00;;;;;;;7.28;54.42;100743.41;5030129;28;20049;-78
2023/04/27 07:28:28;;;;;;;1.85;0.10;;;;;;;7.34;53.47;100734.72;5025560;28;20053;-77
2023/04/27 07:30:56;;;;;;;0.10;0.10;;;;;;;7.52;53.99;100747.63;5014662;28;20057;-74
2023/04/27 07:33:23;;;;;;;0.95;0.22;;;;;;;7.62;53.73;100738.00;5023904;28;20405;-76
2023/04/27 07:35:52;;;;;;;0.10;0.00;;;;;;;7.76;53.28;100745.72;5019406;28;20045;-75
2023/04/27 07:38:19;;;;;;;1.95;0.10;;;;;;;7.88;53.24;100748.22;5018889;28;20493;-73
2023/04/27 07:40:46;;;;;;;1.27;0.10;;;;;;;8.00;53.33;100739.47;5019796;28;20053;-76
2023/04/27 07:43:15;;;;;;;1.70;0.10;;;;;;;8.14;53.65;100742.81;5017499;28;20052;-75
2023/04/27 07:45:42;;;;;;;0.55;0.00;;;;;;;8.27;52.97;100748.75;5018149;28;20045;-78
2023/04/27 07:48:09;;;;;;;0.10;0.10;;;;;;;8.41;52.62;100740.84;5016997;28;20038;-76
2023/04/27 07:50:36;;;;;;;0.45;0.08;;;;;;;8.56;51.74;100745.88;5025826;28;20099;-74
2023/04/27 07:53:03;;;;;;;0.30;0.17;;;;;;;8.70;51.09;100748.34;5016718;28;20041;-76
2023/04/27 07:55:30;;;;;;;0.20;0.03;;;;;;;8.85;51.13;100742.09;5020241;28;20052;-74
2023/04/27 07:57:57;;;;;;;0.20;0.00;;;;;;;8.99;51.09;100748.00;5015927;28;20798;-73
2023/04/27 08:00:26;;;;;;;0.00;0.00;;;;;;;9.13;50.24;100751.28;5013943;28;20829;-74
2023/04/27 08:02:54;;;;;;;0.10;0.10;;;;;;;9.28;51.13;100754.56;5019885;28;20488;-75
2023/04/27 08:05:21;;;;;;;0.10;0.00;;;;;;;9.41;50.58;100753.53;5019658;28;20048;-74
2023/04/27 08:07:48;;;;;;;0.20;0.10;;;;;;;9.52;48.83;100756.84;5019444;28;20045;-77
2023/04/27 08:10:15;;;;;;;0.00;0.00;;;;;;;9.59;48.97;100745.47;5024860;28;20041;-76
2023/04/27 08:12:42;;;;;;;1.55;0.10;;;;;;;9.77;49.24;100759.09;5022205;28;20759;-76
2023/04/27 08:15:10;;;;;;;1.42;0.05;;;;;;;9.87;47.75;100763.28;5018681;28;20500;-76
2023/04/27 08:17:40;;;;;;;0.20;0.10;;;;;;;9.95;47.81;100764.00;5020527;28;20065;-75
2023/04/27 08:20:10;;;;;;;2.83;0.10;;;;;;;10.05;47.28;100757.78;5021251;28;20052;-74
2023/04/27 08:22:37;;;;;;;0.47;0.10;;;;;;;10.15;47.02;100750.63;5023130;28;20053;-76
2023/04/27 08:25:05;;;;;;;0.20;0.15;;;;;;;10.24;46.28;100760.06;5020492;28;20038;-76
2023/04/27 08:27:32;;;;;;;1.13;0.00;;;;;;;10.28;46.59;100765.25;5023319;28;20228;-77
2023/04/27 08:30:00;;;;;;;0.30;0.05;;;;;;;10.33;46.50;100766.03;5024791;28;20049;-78
2023/04/27 08:32:27;;;;;;;0.10;0.00;;;;;;;10.41;46.71;100776.31;5022547;28;20129;-80
2023/04/27 08:34:55;;;;;;;0.38;0.10;;;;;;;10.47;45.74;100773.63;5019774;28;20049;-76
2023/04/27 08:37:22;;;;;;;0.00;0.00;;;;;;;10.36;45.94;100736.41;5025568;28;20053;-76
2023/04/27 08:39:49;;;;;;;0.50;0.10;;;;;;;10.58;45.34;100763.81;5029822;28;20075;-80
2023/04/27 08:42:16;;;;;;;0.20;0.10;;;;;;;10.62;45.26;100758.56;5018666;28;20421;-76
2023/04/27 08:44:44;;;;;;;0.13;0.03;;;;;;;10.67;45.10;100768.03;5021084;28;20049;-81
2023/04/27 08:47:12;;;;;;;1.77;0.10;;;;;;;10.76;44.32;100764.38;5025131;28;20542;-78
2023/04/27 08:49:40;;;;;;;2.75;0.10;;;;;;;10.79;44.00;100777.38;5023175;28;20598;-79
2023/04/27 08:52:13;;;;;;;0.00;0.00;;;;;;;10.80;43.95;100759.03;5021626;28;20052;-77
2023/04/27 08:54:40;;;;;;;0.00;0.00;;;;;;;10.83;44.35;100762.50;5016820;28;20057;-76
2023/04/27 08:57:11;;;;;;;0.10;0.10;;;;;;;10.85;43.63;100761.59;5018883;28;20049;-77
2023/04/27 08:59:38;;;;;;;0.20;0.10;;;;;;;10.83;43.25;100752.91;5022941;28;20100;-79
2023/04/27 09:02:06;;;;;;;0.13;0.10;;;;;;;10.89;43.89;100746.69;5022812;28;20694;-78
2023/04/27 09:04:39;;;;;;;0.28;0.00;;;;;;;10.93;44.10;100751.84;5002591;28;20049;-78
2023/04/27 09:07:15;;;;;;;2.38;0.90;;;;;;;10.99;43.41;100756.94;5030094;28;20575;-76
2023/04/27 09:09:42;;;;;;;0.82;0.03;;;;;;;11.03;42.29;100755.97;5028563;28;20045;-75
2023/04/27 09:12:17;;;;;;;0.10;0.00;;;;;;;11.08;43.07;100752.41;5018378;28;20146;-78
2023/04/27 09:14:55;;;;;;;0.10;0.00;;;;;;;11.14;42.12;100768.81;5022576;28;20122;-77
2023/04/27 09:17:26;;;;;;;0.28;0.10;;;;;;;11.18;43.14;100762.63;5027328;28;20512;-78
2023/04/27 09:19:53;;;;;;;2.22;0.47;;;;;;;11.26;42.71;100772.94;5026822;28;20045;-76
2023/04/27 09:22:21;;;;;;;0.10;0.00;;;;;;;11.31;42.75;100781.53;5023603;28;20045;-74
2023/04/27 09:24:52;;;;;;;0.93;0.00;;;;;;;11.33;43.15;100779.75;5022556;28;20755;-76
2023/04/27 09:27:20;;;;;;;0.30;0.00;;;;;;;11.38;43.28;100783.13;5027177;28;20126;-78
2023/04/27 09:29:46;;;;;;;0.05;0.05;;;;;;;11.39;43.61;100784.84;5022986;28;20057;-80
2023/04/27 09:32:17;;;;;;;0.82;0.00;;;;;;;11.47;43.80;100777.72;5021791;28;20046;-77
2023/04/27 09:34:44;;;;;;;0.90;0.00;;;;;;;11.53;43.62;100788.94;5025337;28;20084;-79
2023/04/27 09:37:11;;;;;;;1.92;0.38;;;;;;;11.52;43.72;100789.81;5023508;28;20120;-79
2023/04/27 09:39:41;;;;;;;0.25;0.00;;;;;;;11.55;43.49;100794.97;5021949;28;20100;-72
2023/04/27 09:42:08;;;;;;;0.45;0.08;;;;;;;11.53;43.20;100797.63;5029760;28;20042;-88
2023/04/27 09:44:36;;;;;;;1.35;0.00;;;;;;;11.52;43.15;100795.03;5028159;28;20046;-82
2023/04/27 09:47:03;;;;;;;0.10;0.00;;;;;;;11.48;43.09;100789.88;5023371;28;20565;-79
2023/04/27 09:49:33;;;;;;;1.48;0.10;;;;;;;11.47;43.27;100790.78;5028724;28;20045;-79
2023/04/27 09:52:00;;;;;;;0.45;0.10;;;;;;;11.47;44.09;100797.78;5030330;28;20057;-80
2023/04/27 09:54:31;;;;;;;0.35;0.10;;;;;;;11.46;44.58;100811.72;5030693;28;20049;-78
2023/04/27 09:57:12;;;;;;;0.00;0.00;;;;;;;11.44;44.71;100811.78;5023209;28;20497;-78
2023/04/27 09:59:56;;;;;;;0.10;0.00;;;;;;;11.44;44.92;100814.41;5033716;28;20057;-77
2023/04/27 10:02:24;;;;;;;0.20;0.10;;;;;;;11.45;44.73;100803.03;5027976;28;20042;-80
2023/04/27 10:05:21;;;;;;;0.77;0.00;;;;;;;11.48;45.29;100800.34;5022433;28;20049;-73
2023/04/27 10:07:49;;;;;;;0.47;0.00;;;;;;;11.51;44.64;100801.19;5018509;28;20053;-73
2023/04/27 10:10:18;;;;;;;0.10;0.10;;;;;;;11.52;43.96;100789.81;5019135;28;20053;-73
2023/04/27 10:12:56;;;;;;;0.22;0.00;;;;;;;11.52;43.65;100798.50;5018221;28;20062;-73
2023/04/27 10:15:27;;;;;;;0.45;0.10;;;;;;;11.51;43.67;100804.66;5017881;28;20158;-72
2023/04/27 10:17:57;;;;;;;0.35;0.10;;;;;;;11.48;43.95;100805.56;5016142;28;20523;-73
2023/04/27 10:20:31;;;;;;;0.50;0.38;;;;;;;11.45;43.55;100810.88;5019323;28;20092;-73
2023/04/27 10:22:59;;;;;;;0.35;0.00;;;;;;;11.41;43.27;100809.22;5020810;28;20403;-73
2023/04/27 10:25:28;;;;;;;0.17;0.10;;;;;;;11.38;43.52;100809.28;5021360;28;20053;-74
2023/04/27 10:27:58;;;;;;;1.55;0.10;;;;;;;11.35;43.29;100814.56;5019611;28;20121;-73
2023/04/27 10:30:31;;;;;;;0.20;0.10;;;;;;;11.35;42.89;100818.94;5018441;28;20048;-73
2023/04/27 10:32:59;;;;;;;0.77;0.10;;;;;;;11.30;43.15;100820.78;5022065;28;20116;-74
2023/04/27 10:35:33;;;;;;;2.17;0.10;;;;;;;11.27;43.08;100829.59;5017771;28;20053;-73
2023/04/27 10:38:07;;;;;;;0.13;0.00;;;;;;;11.22;41.65;100841.88;5018814;28;20042;-74
2023/04/27 10:40:35;;;;;;;0.43;0.20;;;;;;;11.13;42.28;100860.38;5018500;28;20045;-74
2023/04/27 10:43:10;;;;;;;0.08;0.00;;;;;;;11.05;42.82;100854.44;5016819;28;20061;-74
2023/04/27 10:45:37;;;;;;;0.17;0.03;;;;;;;10.92;43.05;100852.03;5021193;28;20057;-70
2023/04/27 10:48:05;;;;;;;2.25;0.10;;;;;;;10.79;43.27;100856.63;5024638;28;20416;-78
2023/04/27 10:50:32;;;;;;;0.47;0.00;;;;;;;10.71;44.22;100868.97;5028788;28;20120;-78
2023/04/27 10:53:04;;;;;;;0.30;0.10;;;;;;;10.64;44.42;100869.94;5026164;28;20141;-78
2023/04/27 10:55:32;;;;;;;0.35;0.00;;;;;;;10.55;44.90;100881.41;5023996;28;20045;-81
2023/04/27 10:58:00;;;;;;;0.63;0.10;;;;;;;10.49;45.00;100878.03;5019768;28;20045;-80
2023/04/27 11:00:31;;;;;;;0.20;0.05;;;;;;;10.42;45.24;100879.91;5033055;28;20053;-82
2023/04/27 11:03:10;;;;;;;0.15;0.00;;;;;;;10.35;45.38;100880.88;5023589;28;20120;-80
2023/04/27 11:05:37;;;;;;;0.38;0.10;;;;;;;10.28;45.83;100889.72;5024826;28;20516;-79
2023/04/27 11:08:06;;;;;;;0.10;0.10;;;;;;;10.23;45.62;100881.03;5032212;28;20178;-78
2023/04/27 11:10:34;;;;;;;0.22;0.03;;;;;;;10.21;45.92;100888.03;5026555;28;20091;-75
2023/04/27 11:13:10;;;;;;;0.10;0.00;;;;;;;10.18;45.83;100888.06;5031360;28;20055;-89
2023/04/27 11:15:50;;;;;;;0.60;0.00;;;;;;;10.11;45.79;100888.19;5029487;28;20055;-84
2023/04/27 11:18:19;;;;;;;0.13;0.00;;;;;;;10.05;45.88;100897.84;5027984;28;20134;-83
2023/04/27 11:20:48;;;;;;;0.73;0.10;;;;;;;10.01;45.61;100893.53;5028088;28;20478;-84
2023/04/27 11:23:24;;;;;;;0.17;0.03;;;;;;;9.95;45.51;100891.88;5022226;28;20369;-85
2023/04/27 11:25:51;;;;;;;0.45;0.05;;;;;;;9.94;45.64;100894.53;5024214;28;20549;-81
2023/04/27 11:28:18;;;;;;;0.25;0.10;;;;;;;9.93;46.15;100898.84;5029465;28;20057;-81
2023/04/27 11:30:45;;;;;;;0.28;0.10;;;;;;;9.89;45.96;100898.03;5028369;28;20108;-81
2023/04/27 11:33:13;;;;;;;0.10;0.10;;;;;;;9.85;45.63;100905.97;5022945;28;20478;-79
2023/04/27 11:35:41;;;;;;;0.63;0.22;;;;;;;9.82;46.38;100898.19;5030663;28;20048;-80